M I D A S
Marine Information and Data Acquisition System
Tripno 2303 of the Zeeleeuw from 2012-03-06 08:06:39 to 2012-03-06 15:37:02
Back to CruiseResearch ActivitiesStationsMapUnderway DataData graphs

EquipmentUnitsComment
TimeDGPSUTC
LatitudeDGPSDM.mWGS84
LongitudeDGPSDM.mWGS84
TemperatureSBE03/SBE38deg celciusITS90
ConductivitySBE21S/mITS90
SalinitySBE21 Practical Salinity Units
ChlorophylAChelsea fluorimeterg/lCalibrated in Aceton
Missing or incorrect values are displayed as -999
Sea surface data collected by the RV Zeeleeuw from 2012-03-06 07:05:44 to 2012-03-06 15:48:34
Time Latitude Longitude Temperature Conductivity Salinity ChlorophylA
2012-03-06 07:06:50 51°13.639 2°56.015 12.1652 1.053 6.829804 -2.458615
2012-03-06 07:07:49 51°13.639 2°56.016 12.1684 1.053103 6.830396 -2.458615
2012-03-06 07:08:49 51°13.639 2°56.016 12.1514 1.053103 6.830396 -2.458615
2012-03-06 07:09:50 51°13.639 2°56.016 12.17 1.053103 6.830268 -2.458615
2012-03-06 07:10:49 51°13.638 2°56.016 12.0266 1.053103 6.830012 -2.458615
2012-03-06 07:11:50 51°13.638 2°56.016 12.1321 1.053103 6.83014 -2.458615
2012-03-06 07:12:50 51°13.637 2°56.017 12.1935 1.053103 6.83014 -2.458615
2012-03-06 07:13:50 51°13.637 2°56.017 12.1577 1.053206 6.830732 -2.458615
2012-03-06 07:14:50 51°13.637 2°56.016 12.1609 1.053206 6.830732 -2.458615
2012-03-06 07:15:49 51°13.636 2°56.015 12.1693 1.053206 6.830604 -2.458615
2012-03-06 07:16:49 51°13.637 2°56.015 12.1727 1.053206 6.830604 -2.458615
2012-03-06 07:17:49 51°13.636 2°56.015 12.1685 1.053206 6.830604 -2.458615
2012-03-06 07:18:49 51°13.637 2°56.016 12.1463 1.053309 6.8303 -2.458615
2012-03-06 07:19:49 51°13.638 2°56.016 12.1445 1.053309 6.831068 -2.458615
2012-03-06 07:20:49 51°13.638 2°56.016 12.1498 1.053206 6.830092 -2.458615
2012-03-06 07:21:49 51°13.638 2°56.016 12.1453 1.053206 6.829836 -2.458615
2012-03-06 07:22:49 51°13.637 2°56.016 12.1551 1.053206 6.829708 -2.458615
2012-03-06 07:23:49 51°13.637 2°56.017 12.1405 1.053206 6.829452 -2.458615
2012-03-06 07:24:49 51°13.637 2°56.017 12.151 1.053206 6.829324 -2.458615
2012-03-06 07:25:49 51°13.637 2°56.016 12.153 1.053206 6.829196 -2.458615
2012-03-06 07:26:49 51°13.637 2°56.016 12.1544 1.053206 6.829196 -2.458615
2012-03-06 07:27:49 51°13.637 2°56.016 12.1503 1.053206 6.829068 -2.458615
2012-03-06 07:28:49 51°13.636 2°56.016 12.1375 1.053206 6.829068 -2.458615
2012-03-06 07:29:49 51°13.636 2°56.016 12.1439 1.053206 6.829068 -2.458615
2012-03-06 07:30:49 51°13.636 2°56.016 12.1454 1.053206 6.829068 -2.458615
2012-03-06 07:31:49 51°13.637 2°56.016 12.1476 1.053206 6.829068 -2.458615
2012-03-06 07:32:49 51°13.637 2°56.016 12.1485 1.053206 6.829068 -2.458615
2012-03-06 07:33:49 51°13.638 2°56.016 12.1456 1.053206 6.829196 -2.458615
2012-03-06 07:34:49 51°13.638 2°56.016 12.151 1.053206 6.829324 -2.458615
2012-03-06 07:35:49 51°13.638 2°56.016 12.1501 1.053103 6.828604 -2.458615
2012-03-06 07:36:49 51°13.637 2°56.016 12.1486 1.053103 6.828604 -2.458615
2012-03-06 07:37:49 51°13.636 2°56.015 12.1633 1.053103 6.82886 -2.458615
2012-03-06 07:38:49 51°13.637 2°56.016 12.1557 1.053103 6.828988 -2.458615
2012-03-06 07:39:49 51°13.637 2°56.016 12.1616 1.053 6.828396 -2.458615
2012-03-06 07:40:49 51°13.637 2°56.016 12.1672 1.053 6.828524 -2.458615
2012-03-06 07:41:49 51°13.637 2°56.016 12.164 1.052897 6.82806 -2.458615
2012-03-06 07:42:49 51°13.636 2°56.016 12.1716 1.052897 6.828188 -2.458615
2012-03-06 07:43:49 51°13.636 2°56.015 12.1663 1.052794 6.827724 -2.458615
2012-03-06 07:44:49 51°13.637 2°56.016 12.1705 1.052794 6.82798 -2.458615
2012-03-06 07:45:49 51°13.636 2°56.016 12.1569 1.052691 6.827388 -2.458615
2012-03-06 07:46:49 51°13.636 2°56.016 12.1711 1.052691 6.827772 -2.458615
2012-03-06 07:47:49 51°13.637 2°56.016 12.1754 1.052588 6.827307 -2.458615
2012-03-06 07:48:49 51°13.638 2°56.016 12.1732 1.052485 6.826715 -2.458615
2012-03-06 07:49:49 51°13.637 2°56.016 12.1823 1.052382 6.826379 -2.458615
2012-03-06 07:50:49 51°13.638 2°56.017 12.1738 1.052279 6.826043 -2.458615
2012-03-06 07:51:49 51°13.637 2°56.016 12.1829 1.052176 6.825579 -2.458615
2012-03-06 07:52:49 51°13.637 2°56.015 12.1996 1.052176 6.825963 -2.458615
2012-03-06 07:53:49 51°13.637 2°56.016 12.2077 1.052073 6.825755 -2.458615
2012-03-06 07:54:49 51°13.636 2°56.016 12.2103 1.052073 6.826139 -2.458615
2012-03-06 07:55:49 51°13.635 2°56.016 12.2165 1.05197 6.825803 -2.458615
2012-03-06 07:56:49 51°13.634 2°56.015 12.2154 1.051867 6.825594 -2.458615
2012-03-06 07:57:49 51°13.653 2°55.945 12.1597 1.051351 6.820713 -2.458615
2012-03-06 07:58:49 51°13.671 2°55.868 12.1429 1.051145 6.819784 -2.458615
2012-03-06 07:59:49 51°13.696 2°55.779 12.1522 1.050733 6.81703 -2.458615
2012-03-06 08:00:49 51°13.749 2°55.68 12.1652 1.050527 6.816101 -2.458615
2012-03-06 08:01:49 51°13.831 2°55.626 12.1753 1.050836 6.818902 -2.458615
2012-03-06 08:02:49 51°13.923 2°55.636 12.1744 1.051042 6.821239 -2.458615
2012-03-06 08:03:49 51°13.966 2°55.668 12.2008 1.051249 6.82332 -2.458615
2012-03-06 08:04:49 51°13.983 2°55.6 12.0518 0.800678 5.089547 -2.458615
2012-03-06 08:05:49 51°14.074 2°55.479 12.0529 0.529958 3.270755 -2.458615
2012-03-06 08:06:49 51°14.2 2°55.353 11.9809 0.514213 3.162398 -2.458615
2012-03-06 08:07:49 51°14.333 2°55.215 11.9138 0.512772 3.151075 -2.458615
2012-03-06 08:08:49 51°14.474 2°55.076 11.7965 0.280568 1.659924 -2.458615
2012-03-06 08:09:47 51°14.61 2°54.927 11.7396 0.116226 0.657513 -2.458615
2012-03-06 08:10:45 51°14.741 2°54.751 11.7878 0.058235 0.321799 -2.458615
2012-03-06 08:11:45 51°14.882 2°54.572 11.7465 0.037261 0.204024 -2.458615
2012-03-06 08:12:45 51°15.044 2°54.465 11.7663 0.041682 0.228747 -2.458615
2012-03-06 08:12:48 51°13.592 2°56.194 12.1472 1.053 6.829804 -2.458615
2012-03-06 08:13:45 51°15.212 2°54.418 11.7458 0.05258 0.290619 -2.458615
2012-03-06 08:14:45 51°15.377 2°54.359 11.7618 0.031504 0.17262 -2.458615
2012-03-06 08:15:45 51°15.546 2°54.344 11.7359 0.02698 0.147902 -2.458615
2012-03-06 08:16:45 51°15.714 2°54.303 11.741 0.027803 0.152484 -2.458615
2012-03-06 08:17:45 51°15.877 2°54.321 11.7403 0.024924 0.136946 -2.458615
2012-03-06 08:18:45 51°16.041 2°54.317 11.7439 0.025438 0.139766 -2.458615
2012-03-06 08:19:45 51°16.203 2°54.274 11.7457 0.024821 0.136352 -2.458615
2012-03-06 08:20:45 51°16.294 2°54.318 11.7707 0.025747 0.141692 -2.458615
2012-03-06 08:21:45 51°16.309 2°54.394 11.7692 0.026877 0.147944 -2.458615
2012-03-06 08:22:45 51°16.296 2°54.406 11.7921 0.02955 0.162765 -2.458615
2012-03-06 08:23:45 51°16.282 2°54.403 11.7825 0.026672 0.146835 -2.458615
2012-03-06 08:24:45 51°16.266 2°54.397 11.7927 0.02698 0.148562 -2.458615
2012-03-06 08:25:45 51°16.251 2°54.392 11.7984 0.033149 0.182833 -2.458615
2012-03-06 08:26:45 51°16.234 2°54.387 11.7924 0.028728 0.158285 -2.458615
2012-03-06 08:27:45 51°16.217 2°54.383 11.953 0.137409 0.796684 -2.458615
2012-03-06 08:28:45 51°16.199 2°54.378 12.0137 0.055562 0.311018 -2.458615
2012-03-06 08:29:45 51°16.183 2°54.376 5.0472 2.422644 19.158943 -2.458615
2012-03-06 08:30:45 51°16.167 2°54.373 4.9744 3.102399 31.543102 -2.458615
2012-03-06 08:31:45 51°16.151 2°54.369 4.9817 3.020996 30.881726 -2.458615
2012-03-06 08:32:45 51°16.134 2°54.366 4.9695 3.01355 30.848834 -2.458615
2012-03-06 08:33:45 51°16.116 2°54.364 4.9731 3.00962 30.830905 -2.458615
2012-03-06 08:34:45 51°16.098 2°54.364 4.9705 3.004139 30.785657 -2.458615
2012-03-06 08:35:45 51°16.081 2°54.362 4.9676 2.995658 30.703767 -2.458615
2012-03-06 08:36:45 51°16.057 2°54.363 4.972 2.993279 30.68477 -2.458615
2012-03-06 08:37:45 51°16.005 2°54.326 4.97 2.984385 30.58759 -2.458615
2012-03-06 08:38:45 51°16.005 2°54.223 4.9639 2.975387 30.494522 -2.458615
2012-03-06 08:39:45 51°16.082 2°54.115 4.974 2.980248 30.551301 -2.458615
2012-03-06 08:40:45 51°16.207 2°53.917 4.9213 2.908893 29.742263 -2.458615
2012-03-06 08:41:45 51°16.356 2°53.71 4.8979 2.888523 29.567806 -2.458615
2012-03-06 08:42:45 51°16.515 2°53.524 4.8891 2.880975 29.497031 -2.458615
2012-03-06 08:43:45 51°16.662 2°53.312 4.8813 2.876529 29.454464 -2.458615
2012-03-06 08:44:45 51°16.813 2°53.112 4.8606 2.875081 29.453396 -2.458615
2012-03-06 08:45:45 51°16.957 2°52.911 4.8712 2.871152 29.421733 -2.458615
2012-03-06 08:46:45 51°17.103 2°52.709 4.8138 2.859778 29.294922 -2.458615
2012-03-06 08:47:45 51°17.236 2°52.481 4.789 2.632981 26.787605 -2.458615
2012-03-06 08:48:45 51°17.377 2°52.26 4.7591 2.415585 24.386213 -2.458615
2012-03-06 08:49:45 51°17.521 2°52.053 4.7379 2.353505 23.72345 -2.458615
2012-03-06 08:50:45 51°17.667 2°51.848 4.7203 2.296286 23.110525 -2.458615
2012-03-06 08:51:45 51°17.804 2°51.645 4.7225 2.277283 22.907869 -2.458615
2012-03-06 08:52:45 51°17.886 2°51.596 4.7236 2.24496 22.549642 -2.458615
2012-03-06 08:53:45 51°17.907 2°51.607 4.7035 1.941243 19.246609 -2.458615
2012-03-06 08:54:45 51°17.9 2°51.609 4.6952 1.878397 18.577645 -2.458615
2012-03-06 08:55:46 51°17.891 2°51.608 4.694 1.883866 18.64091 -2.458615
2012-03-06 08:56:46 51°17.878 2°51.608 4.6994 1.916785 18.998371 -2.458615
2012-03-06 08:57:45 51°17.866 2°51.608 4.6948 3.000729 31.054794 -2.458615
2012-03-06 08:58:45 51°17.852 2°51.608 4.7008 2.999798 31.049559 -2.458615
2012-03-06 08:59:45 51°17.839 2°51.61 4.7252 3.000212 31.041674 -2.458615
2012-03-06 09:00:45 51°17.824 2°51.611 4.714 3.001763 31.041392 -2.458615
2012-03-06 09:01:45 51°17.81 2°51.613 4.7192 3.000729 31.045783 -2.458615
2012-03-06 09:02:45 51°17.796 2°51.617 4.752 3.000936 31.042743 -2.458615
2012-03-06 09:03:45 51°17.784 2°51.623 4.7315 3.00259 31.040943 -2.458615
2012-03-06 09:04:45 51°17.772 2°51.631 4.735 3.002694 31.052027 -2.458615
2012-03-06 09:05:45 51°17.76 2°51.64 4.7418 3.0029 31.048088 -2.458615
2012-03-06 09:06:45 51°17.749 2°51.648 4.7579 3.003831 31.062324 -2.458615
2012-03-06 09:07:45 51°17.738 2°51.658 4.7785 3.005382 31.059334 -2.458615
2012-03-06 09:08:45 51°17.751 2°51.722 4.7424 3.004348 31.043927 -2.458615
2012-03-06 09:09:45 51°17.816 2°51.675 4.7346 3.003831 31.058721 -2.458615
2012-03-06 09:10:45 51°17.903 2°51.481 4.7079 3.001556 31.04353 -2.458615
2012-03-06 09:11:45 51°18.041 2°51.273 4.7024 3.004142 31.083897 -2.458615
2012-03-06 09:12:45 51°18.188 2°51.076 4.6716 3.007038 31.129652 -2.458615
2012-03-06 09:13:45 51°18.327 2°50.864 4.6378 3.007452 31.161523 -2.458615
2012-03-06 09:14:45 51°18.463 2°50.76 4.5927 3.003729 31.1533 -2.458615
2012-03-06 09:15:45 51°18.531 2°50.83 4.5972 2.999696 31.137883 -2.458615
2012-03-06 09:16:45 51°18.525 2°50.95 4.5981 2.998868 31.13202 -2.458615
2012-03-06 09:17:45 51°18.516 2°50.986 4.5824 2.998351 31.127903 -2.458615
2012-03-06 09:18:45 51°18.509 2°50.993 4.5672 2.997834 31.140113 -2.458615
2012-03-06 09:19:45 51°18.499 2°51.004 4.6003 2.997007 31.137878 -2.458615
2012-03-06 09:20:45 51°18.489 2°51.018 4.6021 2.998454 31.122743 -2.458615
2012-03-06 09:21:45 51°18.479 2°51.034 4.5984 2.998558 31.132996 -2.458615
2012-03-06 09:22:45 51°18.47 2°51.051 4.6124 2.998454 31.126369 -2.458615
2012-03-06 09:23:45 51°18.462 2°51.07 4.5943 2.999282 31.130418 -2.458615
2012-03-06 09:24:45 51°18.454 2°51.089 4.5969 2.998558 31.136624 -2.458615
2012-03-06 09:25:45 51°18.447 2°51.108 4.5964 2.998558 31.132089 -2.458615
2012-03-06 09:26:45 51°18.438 2°51.129 4.581 2.998455 31.133623 -2.458615
2012-03-06 09:27:45 51°18.428 2°51.149 4.5851 2.997524 31.130201 -2.458615
2012-03-06 09:28:45 51°18.419 2°51.167 4.5943 2.99711 31.127268 -2.458615
2012-03-06 09:29:45 51°18.41 2°51.183 4.6183 2.99742 31.114508 -2.458615
2012-03-06 09:30:45 51°18.401 2°51.199 4.6475 2.998454 31.106438 -2.458615
2012-03-06 09:31:45 51°18.393 2°51.217 4.6371 3.000833 31.113781 -2.458615
2012-03-06 09:32:45 51°18.385 2°51.233 4.6448 3.001143 31.127295 -2.458615
2012-03-06 09:33:45 51°18.379 2°51.248 4.6709 3.001764 31.120824 -2.458615
2012-03-06 09:34:45 51°18.372 2°51.263 4.6681 3.003005 31.118751 -2.458615
2012-03-06 09:35:45 51°18.367 2°51.277 4.6799 3.002901 31.121185 -2.458615
2012-03-06 09:36:45 51°18.361 2°51.29 4.6945 3.004556 31.115714 -2.458615
2012-03-06 09:37:45 51°18.355 2°51.304 4.6973 3.005176 31.123718 -2.458615
2012-03-06 09:38:45 51°18.35 2°51.318 4.7195 3.005486 31.110101 -2.458615
2012-03-06 09:39:45 51°18.344 2°51.335 4.6837 3.007038 31.130556 -2.458615
2012-03-06 09:40:45 51°18.34 2°51.353 4.6872 3.005694 31.136871 -2.458615
2012-03-06 09:41:45 51°18.337 2°51.37 4.7092 3.006314 31.136737 -2.458615
2012-03-06 09:42:45 51°18.334 2°51.388 4.7133 3.008279 31.139329 -2.458615
2012-03-06 09:43:45 51°18.33 2°51.405 4.7073 3.008899 31.149139 -2.458615
2012-03-06 09:44:45 51°18.328 2°51.42 4.72 3.008382 31.145032 -2.458615
2012-03-06 09:45:45 51°18.326 2°51.434 4.7027 3.009417 31.143302 -2.458615
2012-03-06 09:46:45 51°18.324 2°51.448 4.7081 3.008796 31.14886 -2.458615
2012-03-06 09:47:45 51°18.321 2°51.463 4.7102 3.00921 31.149071 -2.458615
2012-03-06 09:48:45 51°18.318 2°51.479 4.678 3.009003 31.15213 -2.458615
2012-03-06 09:49:45 51°18.315 2°51.496 4.6786 3.007452 31.150662 -2.458615
2012-03-06 09:50:45 51°18.311 2°51.513 4.6784 3.006418 31.154209 -2.458615
2012-03-06 09:51:45 51°18.308 2°51.531 4.7016 3.006521 31.140009 -2.458615
2012-03-06 09:52:45 51°18.306 2°51.55 4.6888 3.007555 31.146417 -2.458615
2012-03-06 09:53:45 51°18.304 2°51.571 4.6931 3.007245 31.142867 -2.458615
2012-03-06 09:54:45 51°18.303 2°51.593 4.6766 3.007245 31.149199 -2.458615
2012-03-06 09:55:45 51°18.292 2°51.625 4.6634 3.006314 31.149404 -2.458615
2012-03-06 09:56:45 51°18.252 2°51.614 4.6742 3.005694 31.157691 -2.458615
2012-03-06 09:57:45 51°18.262 2°51.486 4.6905 3.007245 31.153724 -2.458615
2012-03-06 09:58:45 51°18.351 2°51.288 4.6098 3.008176 31.157138 -2.458615
2012-03-06 09:59:45 51°18.467 2°51.075 4.6071 3.00073 31.150651 -2.458615
2012-03-06 10:00:45 51°18.542 2°50.924 4.6118 3.000006 31.148698 -2.458615
2012-03-06 10:01:45 51°18.609 2°50.99 4.6116 2.999385 31.123448 -2.458615
2012-03-06 10:02:45 51°18.623 2°51.039 4.6051 3.000006 31.139627 -2.458615
2012-03-06 10:03:45 51°18.628 2°51.073 4.6028 2.999385 31.140672 -2.458615
2012-03-06 10:04:45 51°18.633 2°51.102 4.5941 2.999282 31.139486 -2.458615
2012-03-06 10:05:45 51°18.636 2°51.127 4.5976 2.998868 31.143813 -2.458615
2012-03-06 10:06:45 51°18.629 2°51.164 4.6096 2.999385 31.136138 -2.458615
2012-03-06 10:07:45 51°18.596 2°51.288 4.6166 2.999385 31.131604 -2.458615
2012-03-06 10:08:45 51°18.636 2°51.585 4.62 2.998661 31.119678 -2.458615
2012-03-06 10:09:45 51°18.765 2°51.877 4.6146 3.000936 31.135795 -2.458615
2012-03-06 10:10:45 51°18.905 2°52.159 4.6107 2.999592 31.129444 -2.458615
2012-03-06 10:11:45 51°19.045 2°52.442 4.6207 2.99742 31.103637 -2.458615
2012-03-06 10:12:45 51°19.172 2°52.739 4.6455 2.997834 31.09661 -2.458615
2012-03-06 10:13:45 51°19.302 2°53.03 4.6437 2.997834 31.08033 -2.458615
2012-03-06 10:14:45 51°19.468 2°53.267 4.6509 2.999488 31.092954 -2.458615
2012-03-06 10:15:45 51°19.637 2°53.5 4.6857 3.001143 31.103766 -2.458615
2012-03-06 10:16:45 51°19.799 2°53.747 4.6998 2.997316 31.031987 -2.458615
2012-03-06 10:17:45 51°19.954 2°54.01 4.723 2.993386 30.969052 -2.458615
2012-03-06 10:18:45 51°20.115 2°54.261 4.6977 2.9908 30.938605 -2.458615
2012-03-06 10:19:45 51°20.274 2°54.516 4.7018 2.983664 30.878581 -2.458615
2012-03-06 10:20:45 51°20.441 2°54.755 4.6855 2.973219 30.753846 -2.458615
2012-03-06 10:21:45 51°20.608 2°55.001 4.6661 2.973322 30.763067 -2.458615
2012-03-06 10:22:45 51°20.766 2°55.26 4.6805 2.969599 30.720529 -2.458615
2012-03-06 10:23:45 51°20.928 2°55.511 4.714 2.965772 30.673254 -2.458615
2012-03-06 10:24:45 51°21.097 2°55.752 4.6908 2.96329 30.635121 -2.458615
2012-03-06 10:25:45 51°21.265 2°55.996 4.6815 2.965876 30.686912 -2.458615
2012-03-06 10:26:45 51°21.425 2°56.256 4.6691 2.96629 30.697882 -2.458615
2012-03-06 10:27:45 51°21.587 2°56.515 4.7048 2.963187 30.656192 -2.458615
2012-03-06 10:28:45 51°21.756 2°56.766 4.6944 2.961739 30.626304 -2.458615
2012-03-06 10:29:45 51°21.921 2°57.02 4.6865 2.961946 30.626887 -2.458615
2012-03-06 10:30:45 51°22.087 2°57.277 4.6954 2.961119 30.616552 -2.458615
2012-03-06 10:31:45 51°22.246 2°57.546 4.7136 2.960291 30.618665 -2.458615
2012-03-06 10:32:45 51°22.42 2°57.791 4.7014 2.956258 30.546873 -2.458615
2012-03-06 10:33:45 51°22.592 2°58.039 4.6937 2.955431 30.547186 -2.458615
2012-03-06 10:34:45 51°22.789 2°58.217 4.6894 2.955637 30.551321 -2.458615
2012-03-06 10:35:45 51°23.007 2°58.322 4.6556 2.956568 30.58059 -2.458615
2012-03-06 10:36:45 51°23.226 2°58.424 4.6286 2.9545 30.569404 -2.458615
2012-03-06 10:37:45 51°23.442 2°58.522 4.679 2.960499 30.663787 -2.458615
2012-03-06 10:38:45 51°23.66 2°58.616 4.6255 2.959775 30.655508 -2.458615
2012-03-06 10:39:45 51°23.878 2°58.69 4.648 2.957086 30.627431 -2.458615
2012-03-06 10:40:45 51°24.096 2°58.715 4.5584 2.956879 30.633088 -2.458615
2012-03-06 10:41:45 51°24.311 2°58.761 4.5567 2.998662 31.17778 -2.458615
2012-03-06 10:42:45 51°24.527 2°58.794 4.5714 3.007453 31.2724 -2.458615
2012-03-06 10:43:45 51°24.741 2°58.865 4.561 3.013555 31.33521 -2.458615
2012-03-06 10:44:45 51°24.951 2°58.958 4.5478 3.006315 31.259328 -2.458615
2012-03-06 10:45:45 51°25.149 2°59.117 4.5553 2.997214 31.164784 -2.458615
2012-03-06 10:46:45 51°25.346 2°59.283 4.5589 2.992973 31.111539 -2.458615
2012-03-06 10:47:45 51°25.529 2°59.487 4.5557 2.993387 31.115382 -2.458615
2012-03-06 10:48:45 51°25.711 2°59.694 4.5624 2.999179 31.180991 -2.458615
2012-03-06 10:49:45 51°25.898 2°59.889 4.5571 2.998248 31.16939 -2.458615
2012-03-06 10:50:45 51°26.084 3°0.09 4.555 3.002592 31.221108 -2.458615
2012-03-06 10:51:45 51°26.257 3°0.322 4.5402 3.005074 31.252362 -2.458615
2012-03-06 10:52:45 51°26.422 3°0.571 4.5369 3.001661 31.229548 -2.458615
2012-03-06 10:53:45 51°26.593 3°0.812 4.5298 3.009315 31.312972 -2.458615
2012-03-06 10:54:45 51°26.765 3°1.053 4.5466 3.010556 31.33639 -2.458615
2012-03-06 10:55:45 51°26.942 3°1.286 4.5482 3.011383 31.328527 -2.458615
2012-03-06 10:56:45 51°27.11 3°1.544 4.5482 3.024622 31.47985 -2.458615
2012-03-06 10:57:45 51°27.288 3°1.785 4.5535 3.018727 31.416628 -2.458615
2012-03-06 10:58:45 51°27.465 3°2.029 4.5574 3.019554 31.420643 -2.458615
2012-03-06 10:59:45 51°27.632 3°2.287 4.5627 3.020278 31.426218 -2.458615
2012-03-06 11:00:45 51°27.791 3°2.555 4.6284 3.013141 31.320409 -2.458615
2012-03-06 11:01:45 51°27.955 3°2.805 4.6034 2.973012 30.819505 -2.458615
2012-03-06 11:02:45 51°28.11 3°3.072 4.5782 2.966394 30.775093 -2.458615
2012-03-06 11:03:45 51°28.276 3°3.316 4.5516 2.963602 30.759238 -2.458615
2012-03-06 11:04:45 51°28.356 3°3.487 4.5575 2.970945 30.868611 -2.458615
2012-03-06 11:05:45 51°28.386 3°3.587 4.5888 2.96536 30.801841 -2.458615
2012-03-06 11:06:45 51°28.404 3°3.626 4.5838 2.957397 30.680974 -2.458615
2012-03-06 11:07:49 51°28.408 3°3.639 4.5714 2.966084 30.795768 -2.458615
2012-03-06 11:08:47 51°28.413 3°3.648 4.5474 2.970531 30.855761 -2.458615
2012-03-06 11:09:45 51°28.419 3°3.656 4.5611 2.974461 30.91167 -2.458615
2012-03-06 11:10:45 51°28.427 3°3.666 4.5375 2.969911 30.850443 -2.458615
2012-03-06 11:11:45 51°28.436 3°3.68 4.5417 2.982838 31.010556 -2.458615
2012-03-06 11:12:45 51°28.42 3°3.796 4.5757 2.986872 31.057786 -2.458615
2012-03-06 11:13:45 51°28.327 3°4.03 4.6076 2.963498 30.747295 -2.458615
2012-03-06 11:14:45 51°28.188 3°4.268 4.6418 2.958948 30.670139 -2.458615
2012-03-06 11:15:45 51°28.044 3°4.506 4.6638 2.962257 30.673187 -2.458615
2012-03-06 11:16:45 51°27.899 3°4.739 4.6453 2.969289 30.747351 -2.458615
2012-03-06 11:17:45 51°27.755 3°4.978 4.6225 2.970841 30.785681 -2.458615
2012-03-06 11:18:45 51°27.623 3°5.208 4.6858 2.970944 30.777908 -2.458615
2012-03-06 11:19:45 51°27.548 3°5.346 4.6865 2.971667 30.747733 -2.458615
2012-03-06 11:20:45 51°27.493 3°5.337 4.6981 2.976735 30.799384 -2.458615
2012-03-06 11:21:45 51°27.489 3°5.304 4.7046 2.978286 30.815322 -2.458615
2012-03-06 11:22:45 51°27.501 3°5.289 4.6873 2.978803 30.817652 -2.458615
2012-03-06 11:23:45 51°27.515 3°5.283 4.6805 2.980251 30.846737 -2.458615
2012-03-06 11:24:45 51°27.528 3°5.282 4.6782 2.980458 30.85448 -2.458615
2012-03-06 11:25:45 51°27.542 3°5.287 4.6794 2.979941 30.854843 -2.458615
2012-03-06 11:26:45 51°27.555 3°5.295 4.6492 2.978803 30.828394 -2.458615
2012-03-06 11:27:45 51°27.567 3°5.305 4.6584 2.979734 30.866832 -2.458615
2012-03-06 11:28:45 51°27.58 3°5.315 4.6524 2.979424 30.865077 -2.458615
2012-03-06 11:29:45 51°27.592 3°5.327 4.6144 2.979528 30.873442 -2.458615
2012-03-06 11:30:45 51°27.604 3°5.34 4.6117 2.981493 30.92742 -2.458615
2012-03-06 11:31:45 51°27.616 3°5.352 4.6315 2.980872 30.918509 -2.458615
2012-03-06 11:32:45 51°27.626 3°5.366 4.6387 2.981286 30.919648 -2.458615
2012-03-06 11:33:45 51°27.636 3°5.38 4.6324 2.979528 30.880628 -2.458615
2012-03-06 11:34:45 51°27.646 3°5.393 4.6505 2.980252 30.898805 -2.458615
2012-03-06 11:35:45 51°27.656 3°5.407 4.6672 2.977459 30.840801 -2.458615
2012-03-06 11:36:45 51°27.666 3°5.421 4.6812 2.978493 30.850838 -2.458615
2012-03-06 11:37:45 51°27.676 3°5.436 4.6302 2.979217 30.839394 -2.458615
2012-03-06 11:38:45 51°27.685 3°5.451 4.6293 2.983561 30.935806 -2.458615
2012-03-06 11:39:45 51°27.695 3°5.466 4.5945 2.984906 30.960216 -2.458615
2012-03-06 11:40:45 51°27.702 3°5.482 4.6292 2.982941 30.9314 -2.458615
2012-03-06 11:41:45 51°27.711 3°5.5 4.5783 2.985113 30.977918 -2.458615
2012-03-06 11:42:45 51°27.719 3°5.517 4.5606 2.98501 31.001115 -2.458615
2012-03-06 11:43:45 51°27.726 3°5.535 4.5693 2.985941 31.027171 -2.458615
2012-03-06 11:44:45 51°27.733 3°5.551 4.6029 2.983148 30.976147 -2.458615
2012-03-06 11:45:45 51°27.74 3°5.568 4.62 2.980252 30.9096 -2.458615
2012-03-06 11:46:45 51°27.748 3°5.585 4.6503 2.981079 30.912778 -2.458615
2012-03-06 11:47:45 51°27.748 3°5.601 4.674 2.980045 30.873075 -2.458615
2012-03-06 11:48:45 51°27.693 3°5.622 4.6977 2.981699 30.86329 -2.458615
2012-03-06 11:49:45 51°27.624 3°5.647 4.6935 2.97839 30.819189 -2.458615
2012-03-06 11:50:45 51°27.576 3°5.663 4.6883 2.97539 30.787597 -2.458615
2012-03-06 11:51:45 51°27.527 3°5.669 4.6962 2.972702 30.757764 -2.458615
2012-03-06 11:52:45 51°27.473 3°5.665 4.7022 2.970633 30.726097 -2.458615
2012-03-06 11:53:45 51°27.416 3°5.664 4.7042 2.968978 30.706305 -2.458615
2012-03-06 11:54:45 51°27.359 3°5.679 4.7097 2.968358 30.694761 -2.458615
2012-03-06 11:55:45 51°27.304 3°5.714 4.7127 2.970426 30.716599 -2.458615
2012-03-06 11:56:45 51°27.251 3°5.762 4.7062 2.968978 30.693827 -2.458615
2012-03-06 11:57:45 51°27.201 3°5.826 4.6986 2.968875 30.703341 -2.458615
2012-03-06 11:58:45 51°27.161 3°5.914 4.6805 2.97146 30.737333 -2.458615
2012-03-06 11:59:45 51°27.139 3°6.026 4.6615 2.97115 30.75612 -2.458615
2012-03-06 12:00:45 51°27.138 3°6.153 4.6783 2.970323 30.7556 -2.458615
2012-03-06 12:01:45 51°27.149 3°6.287 4.6691 2.966497 30.698462 -2.458615
2012-03-06 12:02:45 51°27.155 3°6.42 4.6496 2.96298 30.669869 -2.458615
2012-03-06 12:03:45 51°27.176 3°6.54 4.6383 2.96267 30.683271 -2.458615
2012-03-06 12:04:45 51°27.218 3°6.641 4.6389 2.964532 30.711708 -2.458615
2012-03-06 12:05:45 51°27.264 3°6.736 4.6244 2.967635 30.750783 -2.458615
2012-03-06 12:06:45 51°27.313 3°6.83 4.6488 2.968772 30.762011 -2.458615
2012-03-06 12:07:45 51°27.363 3°6.921 4.647 2.97022 30.765151 -2.458615
2012-03-06 12:08:45 51°27.414 3°7.011 4.6388 2.970427 30.771097 -2.458615
2012-03-06 12:09:45 51°27.462 3°7.104 4.6458 2.969289 30.764347 -2.458615
2012-03-06 12:10:45 51°27.514 3°7.191 4.6946 2.967324 30.726668 -2.458615
2012-03-06 12:11:45 51°27.568 3°7.272 4.6844 2.965566 30.675346 -2.458615
2012-03-06 12:12:45 51°27.622 3°7.35 4.685 2.965255 30.677148 -2.458615
2012-03-06 12:13:45 51°27.681 3°7.423 4.6828 2.965359 30.680112 -2.458615
2012-03-06 12:14:45 51°27.741 3°7.494 4.6613 2.965462 30.68486 -2.458615
2012-03-06 12:15:45 51°27.799 3°7.566 4.6519 2.96629 30.715735 -2.458615
2012-03-06 12:16:45 51°27.857 3°7.638 4.6558 2.968151 30.743281 -2.458615
2012-03-06 12:17:45 51°27.913 3°7.714 4.6438 2.967738 30.733186 -2.458615
2012-03-06 12:18:45 51°27.97 3°7.791 4.6271 2.968358 30.752803 -2.458615
2012-03-06 12:19:45 51°28.026 3°7.869 4.6245 2.972185 30.815414 -2.458615
2012-03-06 12:20:45 51°28.083 3°7.946 4.6463 2.968255 30.756989 -2.458615
2012-03-06 12:21:45 51°28.13 3°8.033 4.6161 2.969703 30.774453 -2.458615
2012-03-06 12:22:45 51°28.163 3°8.131 4.612 2.970737 30.801527 -2.458615
2012-03-06 12:23:45 51°28.179 3°8.234 4.6136 2.970944 30.80838 -2.458615
2012-03-06 12:24:45 51°28.188 3°8.34 4.6496 2.966497 30.75477 -2.458615
2012-03-06 12:25:45 51°28.197 3°8.446 4.6315 2.965359 30.71045 -2.458615
2012-03-06 12:26:45 51°28.198 3°8.55 4.6113 2.96598 30.736321 -2.458615
2012-03-06 12:27:45 51°28.193 3°8.649 4.622 2.965153 30.742064 -2.458615
2012-03-06 12:28:45 51°28.182 3°8.742 4.6185 2.962257 30.699079 -2.458615
2012-03-06 12:29:45 51°28.164 3°8.826 4.5803 2.959672 30.686466 -2.458615
2012-03-06 12:30:45 51°28.136 3°8.889 4.5832 2.959258 30.705879 -2.458615
2012-03-06 12:31:45 51°28.117 3°8.915 4.6122 2.954501 30.640661 -2.458615
2012-03-06 12:32:45 51°28.108 3°8.936 4.597 2.955225 30.638237 -2.458615
2012-03-06 12:33:45 51°28.106 3°8.959 4.6326 2.955328 30.642099 -2.458615
2012-03-06 12:34:45 51°28.099 3°8.976 4.6039 2.955535 30.612364 -2.458615
2012-03-06 12:35:45 51°28.034 3°8.934 4.596 2.956052 30.642353 -2.458615
2012-03-06 12:36:45 51°27.896 3°8.815 4.5891 2.956879 30.662539 -2.458615
2012-03-06 12:37:45 51°27.741 3°8.659 4.6024 2.955949 30.650989 -2.458615
2012-03-06 12:38:45 51°27.623 3°8.432 4.6098 2.949744 30.566599 -2.458615
2012-03-06 12:39:45 51°27.512 3°8.195 4.6138 2.947055 30.532283 -2.458615
2012-03-06 12:40:45 51°27.397 3°7.959 4.6124 2.946021 30.519566 -2.458615
2012-03-06 12:41:45 51°27.273 3°7.733 4.5994 2.946228 30.523709 -2.458615
2012-03-06 12:42:45 51°27.154 3°7.5 4.5858 2.955225 30.638237 -2.458615
2012-03-06 12:43:45 51°27.025 3°7.281 4.575 2.956466 30.665843 -2.458615
2012-03-06 12:44:45 51°26.908 3°7.044 4.5615 2.95781 30.689291 -2.458615
2012-03-06 12:45:45 51°26.783 3°6.823 4.5471 2.961534 30.750774 -2.458615
2012-03-06 12:46:45 51°26.655 3°6.607 4.5513 2.965257 30.801553 -2.458615
2012-03-06 12:47:45 51°26.52 3°6.408 4.5716 2.969497 30.845697 -2.458615
2012-03-06 12:48:45 51°26.386 3°6.215 4.5419 2.97715 30.910962 -2.458615
2012-03-06 12:49:45 51°26.256 3°6.013 4.553 2.985527 31.034191 -2.458615
2012-03-06 12:50:45 51°26.133 3°5.808 4.601 2.994008 31.106174 -2.458615
2012-03-06 12:51:45 51°26.004 3°5.616 4.5815 2.987078 31.014899 -2.458615
2012-03-06 12:52:45 51°25.879 3°5.417 4.6062 2.987492 31.017836 -2.458615
2012-03-06 12:53:45 51°25.779 3°5.186 4.6301 2.982631 30.95127 -2.458615
2012-03-06 12:54:45 51°25.681 3°4.953 4.6211 2.973323 30.810502 -2.458615
2012-03-06 12:55:45 51°25.575 3°4.727 4.6174 2.972392 30.807917 -2.458615
2012-03-06 12:56:45 51°25.474 3°4.494 4.6071 2.968152 30.779989 -2.458615
2012-03-06 12:57:45 51°25.384 3°4.244 4.5814 2.968772 30.796064 -2.458615
2012-03-06 12:58:45 51°25.296 3°3.995 4.5962 2.971461 30.835854 -2.458615
2012-03-06 12:59:45 51°25.217 3°3.734 4.6319 2.975598 30.883269 -2.458615
2012-03-06 13:00:45 51°25.13 3°3.482 4.6939 2.971978 30.770944 -2.458615
2012-03-06 13:01:45 51°25.043 3°3.227 4.6691 2.97477 30.804666 -2.458615
2012-03-06 13:02:45 51°24.955 3°2.973 4.762 2.973632 30.755893 -2.458615
2012-03-06 13:03:45 51°24.871 3°2.714 4.7927 2.97239 30.673147 -2.458615
2012-03-06 13:04:45 51°24.784 3°2.456 4.7148 2.973425 30.681379 -2.458615
2012-03-06 13:05:45 51°24.718 3°2.182 4.7905 2.973425 30.724983 -2.458615
2012-03-06 13:06:45 51°24.645 3°1.91 4.8993 2.975286 30.645794 -2.458615
2012-03-06 13:07:45 51°24.569 3°1.643 4.8021 2.982628 30.704489 -2.458615
2012-03-06 13:08:45 51°24.496 3°1.376 4.799 2.984594 30.789079 -2.458615
2012-03-06 13:09:45 51°24.419 3°1.114 4.8308 2.989248 30.823381 -2.458615
2012-03-06 13:10:45 51°24.343 3°0.852 4.8547 2.994419 30.865327 -2.458615
2012-03-06 13:11:45 51°24.225 3°0.639 4.8201 2.994315 30.864149 -2.458615
2012-03-06 13:12:45 51°24.097 3°0.439 4.7661 2.993592 30.903255 -2.458615
2012-03-06 13:13:45 51°23.98 3°0.22 4.7693 2.997936 30.984198 -2.458615
2012-03-06 13:14:45 51°23.856 3°0.011 4.7434 2.999074 31.018768 -2.458615
2012-03-06 13:15:45 51°23.736 2°59.795 4.8161 3.002383 31.005324 -2.458615
2012-03-06 13:16:45 51°23.622 2°59.574 4.7896 3.006934 31.046462 -2.458615
2012-03-06 13:17:45 51°23.498 2°59.364 4.7476 3.014795 31.185805 -2.458615
2012-03-06 13:18:45 51°23.373 2°59.159 4.7364 3.013554 31.235934 -2.458615
2012-03-06 13:19:45 51°23.258 2°58.938 4.7646 3.023896 31.301667 -2.458615
2012-03-06 13:20:45 51°23.141 2°58.722 4.7516 3.011692 31.1648 -2.458615
2012-03-06 13:21:45 51°23.023 2°58.504 4.724 3.012622 31.146529 -2.458615
2012-03-06 13:22:45 51°22.879 2°58.333 4.77 3.016553 31.198667 -2.458615
2012-03-06 13:23:45 51°22.73 2°58.169 4.7047 3.025965 31.299002 -2.458615
2012-03-06 13:24:45 51°22.584 2°57.998 4.7096 3.025758 31.312066 -2.458615
2012-03-06 13:25:45 51°22.436 2°57.831 4.6616 3.024827 31.32413 -2.458615
2012-03-06 13:26:45 51°22.295 2°57.651 4.6208 3.024725 31.387628 -2.458615
2012-03-06 13:27:45 51°22.16 2°57.457 4.5983 3.018933 31.337618 -2.458615
2012-03-06 13:28:45 51°22.021 2°57.276 4.6666 3.016761 31.348286 -2.458615
2012-03-06 13:29:45 51°21.883 2°57.374 4.7059 3.021621 31.283805 -2.458615
2012-03-06 13:30:45 51°21.727 2°57.573 4.6024 3.02338 31.335751 -2.458615
2012-03-06 13:31:45 51°21.56 2°57.766 4.6696 3.014899 31.322345 -2.458615
2012-03-06 13:32:45 51°21.41 2°58 4.6654 3.013347 31.245369 -2.458615
2012-03-06 13:33:45 51°21.272 2°58.257 4.7115 3.014795 31.258326 -2.458615
2012-03-06 13:34:45 51°21.168 2°58.552 4.8438 3.016243 31.234966 -2.458615
2012-03-06 13:35:45 51°21.102 2°58.878 4.8218 3.025653 31.15911 -2.458615
2012-03-06 13:36:45 51°21.028 2°59.197 4.7402 3.014173 31.127267 -2.458615
2012-03-06 13:37:45 51°20.929 2°59.493 4.7431 2.996902 30.990356 -2.458615
2012-03-06 13:38:46 51°20.826 2°59.791 4.7823 2.989145 30.887425 -2.458615
2012-03-06 13:39:48 51°20.721 3°0.09 4.8112 2.990178 30.827742 -2.458615
2012-03-06 13:40:48 51°20.621 3°0.379 4.8106 2.982629 30.781835 -2.458615
2012-03-06 13:41:48 51°20.521 3°0.668 4.802 2.976527 30.674985 -2.458615
2012-03-06 13:42:45 51°20.433 3°0.946 4.7968 2.958325 30.491718 -2.458615
2012-03-06 13:43:45 51°20.362 3°1.187 4.8778 2.95212 30.421113 -2.458615
2012-03-06 13:44:45 51°20.378 3°1.311 4.9516 2.960289 30.440085 -2.458615
2012-03-06 13:45:45 51°20.409 3°1.399 4.9088 2.975698 30.574509 -2.458615
2012-03-06 13:46:45 51°20.442 3°1.476 4.942 2.980663 30.645864 -2.458615
2012-03-06 13:47:45 51°20.478 3°1.546 5.0078 2.991005 30.722577 -2.458615
2012-03-06 13:48:45 51°20.51 3°1.629 5.0466 3.010138 30.885511 -2.458615
2012-03-06 13:49:45 51°20.537 3°1.723 5.1226 3.018101 30.946455 -2.458615
2012-03-06 13:50:45 51°20.56 3°1.815 5.1635 3.002896 30.66157 -2.458615
2012-03-06 13:51:45 51°20.579 3°1.905 4.9176 2.973008 30.373313 -2.458615
2012-03-06 13:52:45 51°20.599 3°1.992 4.8522 2.956773 30.388762 -2.458615
2012-03-06 13:53:45 51°20.623 3°2.077 4.8508 2.950465 30.353098 -2.458615
2012-03-06 13:54:45 51°20.646 3°2.161 4.8354 2.947466 30.326924 -2.458615
2012-03-06 13:55:45 51°20.666 3°2.246 4.8414 2.9515 30.37713 -2.458615
2012-03-06 13:56:45 51°20.688 3°2.328 4.898 2.950362 30.358063 -2.458615
2012-03-06 13:57:45 51°20.718 3°2.402 4.8581 2.952326 30.343559 -2.458615
2012-03-06 13:58:45 51°20.75 3°2.476 4.8206 2.95212 30.373646 -2.458615
2012-03-06 13:59:45 51°20.772 3°2.558 4.8033 2.954085 30.425858 -2.458615
2012-03-06 14:00:45 51°20.789 3°2.641 4.7921 2.949121 30.387874 -2.458615
2012-03-06 14:01:45 51°20.806 3°2.723 4.783 2.943847 30.335786 -2.458615
2012-03-06 14:02:45 51°20.826 3°2.805 4.7891 2.942089 30.321055 -2.458615
2012-03-06 14:03:45 51°20.849 3°2.886 4.7935 2.941779 30.312259 -2.458615
2012-03-06 14:04:45 51°20.871 3°2.97 4.7919 2.942089 30.315788 -2.458615
2012-03-06 14:05:45 51°20.891 3°3.055 4.7808 2.942193 30.319598 -2.458615
2012-03-06 14:06:45 51°20.908 3°3.142 4.8038 2.942089 30.320177 -2.458615
2012-03-06 14:07:45 51°20.925 3°3.228 4.8261 2.943227 30.315563 -2.458615
2012-03-06 14:08:45 51°20.945 3°3.312 4.8309 2.945191 30.320359 -2.458615
2012-03-06 14:09:45 51°20.967 3°3.393 4.8438 2.946225 30.318085 -2.458615
2012-03-06 14:10:45 51°20.989 3°3.475 4.8191 2.947466 30.33569 -2.458615
2012-03-06 14:11:45 51°21.008 3°3.556 4.815 2.94726 30.33948 -2.458615
2012-03-06 14:12:45 51°21.025 3°3.641 4.8343 2.947363 30.359089 -2.458615
2012-03-06 14:13:45 51°21.042 3°3.724 4.8655 2.948604 30.348616 -2.458615
2012-03-06 14:14:45 51°21.063 3°3.806 4.8492 2.951293 30.361617 -2.458615
2012-03-06 14:15:45 51°21.087 3°3.886 4.8206 2.951603 30.382696 -2.458615
2012-03-06 14:16:45 51°21.113 3°3.966 4.8343 2.950776 30.382077 -2.458615
2012-03-06 14:17:45 51°21.137 3°4.047 4.875 2.95181 30.387682 -2.458615
2012-03-06 14:18:45 51°21.16 3°4.13 4.8475 2.954498 30.38662 -2.458615
2012-03-06 14:19:45 51°21.183 3°4.213 4.8392 2.954292 30.407103 -2.458615
2012-03-06 14:20:45 51°21.208 3°4.298 4.8824 2.954912 30.408881 -2.458615
2012-03-06 14:21:45 51°21.23 3°4.39 4.8755 2.964426 30.470346 -2.458615
2012-03-06 14:22:46 51°21.232 3°4.487 4.9246 2.96453 30.489111 -2.458615
2012-03-06 14:23:46 51°21.218 3°4.577 4.8261 2.968666 30.500878 -2.458615
2012-03-06 14:24:46 51°21.187 3°4.647 4.8075 2.956774 30.455555 -2.458615
2012-03-06 14:25:46 51°21.138 3°4.669 4.8065 2.953672 30.431716 -2.458615
2012-03-06 14:26:46 51°21.096 3°4.655 4.8042 2.953465 30.432886 -2.458615
2012-03-06 14:27:46 51°21.067 3°4.637 4.8099 2.953775 30.436415 -2.458615
2012-03-06 14:28:46 51°21.017 3°4.595 4.8165 2.954602 30.431738 -2.458615
2012-03-06 14:29:46 51°20.945 3°4.476 4.8037 2.95636 30.453493 -2.458615
2012-03-06 14:30:46 51°20.915 3°4.381 4.8137 2.955223 30.449363 -2.458615
2012-03-06 14:31:46 51°20.904 3°4.296 4.8148 2.956153 30.45026 -2.458615
2012-03-06 14:32:46 51°20.888 3°4.121 4.8141 2.956464 30.458193 -2.458615
2012-03-06 14:33:46 51°20.84 3°3.848 4.8118 2.956877 30.460255 -2.458615
2012-03-06 14:34:46 51°20.787 3°3.559 4.8057 2.957188 30.467309 -2.458615
2012-03-06 14:35:46 51°20.736 3°3.267 4.834 2.958636 30.485544 -2.458615
2012-03-06 14:36:46 51°20.678 3°2.981 4.8362 2.962462 30.500844 -2.458615
2012-03-06 14:37:46 51°20.626 3°2.693 4.8849 2.972907 30.615198 -2.458615
2012-03-06 14:38:46 51°20.59 3°2.399 4.8737 2.987075 30.73642 -2.458615
2012-03-06 14:39:46 51°20.536 3°2.113 4.8574 2.989661 30.780911 -2.458615
2012-03-06 14:40:46 51°20.47 3°1.834 4.8478 2.98449 30.737196 -2.458615
2012-03-06 14:41:46 51°20.401 3°1.554 4.8497 2.983766 30.733401 -2.458615
2012-03-06 14:42:46 51°20.334 3°1.273 4.879 2.979939 30.691644 -2.458615
2012-03-06 14:43:46 51°20.277 3°0.985 4.9721 2.989247 30.762882 -2.458615
2012-03-06 14:44:46 51°20.228 3°0.695 4.958 3.013448 30.964875 -2.458615
2012-03-06 14:45:46 51°20.168 3°0.412 4.9677 3.018206 31.026939 -2.458615
2012-03-06 14:46:46 51°20.099 3°0.135 4.9785 3.02255 31.061084 -2.458615
2012-03-06 14:47:46 51°20.039 2°59.851 4.9658 3.026376 31.104547 -2.458615
2012-03-06 14:48:46 51°19.98 2°59.565 5.0111 3.025032 31.09017 -2.458615
2012-03-06 14:49:46 51°19.923 2°59.277 5.3853 2.389966 23.977419 -2.458615
2012-03-06 14:50:46 51°19.86 2°58.995 5.5839 2.486248 25.038888 -2.458615
2012-03-06 14:51:46 51°19.788 2°58.719 5.8029 2.516417 25.372583 -2.458615
2012-03-06 14:52:46 51°19.733 2°58.432 6.0002 2.445336 24.586497 -2.458615
2012-03-06 14:53:46 51°19.66 2°58.148 6.1577 2.585959 26.140722 -2.458615
2012-03-06 14:54:46 51°19.593 2°57.86 6.3686 2.398952 24.067971 -2.458615
2012-03-06 14:55:46 51°19.535 2°57.568 6.5689 2.202724 21.915298 -2.458615
2012-03-06 14:56:46 51°19.47 2°57.283 6.7375 2.474469 24.878012 -2.458615
2012-03-06 14:57:46 51°19.406 2°57 6.8978 2.597842 26.203484 -2.458615
2012-03-06 14:58:46 51°19.342 2°56.716 7.0672 2.583271 26.019663 -2.458615
2012-03-06 14:59:46 51°19.282 2°56.43 7.2375 2.352985 23.461953 -2.458615
2012-03-06 15:00:46 51°19.219 2°56.146 7.7587 2.583167 25.96055 -2.458615
2012-03-06 15:01:46 51°19.138 2°55.874 7.6388 2.327886 23.135686 -2.458615
2012-03-06 15:02:46 51°19.069 2°55.592 7.6522 2.25962 22.372861 -2.458615
2012-03-06 15:03:46 51°18.995 2°55.312 7.761 2.455354 24.485315 -2.458615
2012-03-06 15:04:46 51°18.921 2°55.03 7.8447 2.543486 25.427 -2.458615
2012-03-06 15:05:46 51°18.838 2°54.754 7.9154 2.552476 25.511928 -2.458615
2012-03-06 15:06:46 51°18.759 2°54.474 8.0076 2.611377 26.135717 -2.458615
2012-03-06 15:07:46 51°18.69 2°54.186 8.0676 2.481595 24.693145 -2.458615
2012-03-06 15:08:46 51°18.617 2°53.903 8.3802 2.698916 27.05009 -2.458615
2012-03-06 15:09:46 51°18.53 2°53.629 8.5032 2.470023 24.510515 -2.458615
2012-03-06 15:10:46 51°18.448 2°53.352 8.6159 2.533772 25.197869 -2.458615
2012-03-06 15:11:46 51°18.372 2°53.072 8.3145 2.19384 21.503342 -2.458615
2012-03-06 15:12:46 51°18.267 2°52.82 8.4316 2.56291 25.475934 -2.458615
2012-03-06 15:13:46 51°18.123 2°52.629 8.4926 2.306814 22.677595 -2.458615
2012-03-06 15:14:46 51°17.96 2°52.483 8.6463 2.50918 24.847976 -2.458615
2012-03-06 15:15:46 51°17.785 2°52.388 8.651 2.472708 24.432611 -2.458615
2012-03-06 15:16:46 51°17.602 2°52.351 8.7502 2.531497 25.057518 -2.458615
2012-03-06 15:17:46 51°17.422 2°52.359 8.8213 2.555469 25.301832 -2.458615
2012-03-06 15:18:46 51°17.243 2°52.39 8.8606 2.472604 24.380682 -2.458615
2012-03-06 15:19:46 51°17.071 2°52.464 8.9187 2.469401 24.328945 -2.458615
2012-03-06 15:20:46 51°16.911 2°52.588 8.9819 2.588743 25.604193 -2.458615
2012-03-06 15:21:46 51°16.75 2°52.71 9.0722 2.565285 25.332368 -2.458615
2012-03-06 15:22:46 51°16.581 2°52.816 9.088 2.555262 25.204593 -2.458615
2012-03-06 15:23:46 51°16.422 2°52.942 9.1299 2.600006 25.673333 -2.458615
2012-03-06 15:24:46 51°16.274 2°53.092 9.1732 2.600626 25.6621 -2.458615
2012-03-06 15:25:46 51°16.117 2°53.223 9.2636 2.595045 25.585851 -2.458615
2012-03-06 15:26:46 51°15.96 2°53.348 9.3205 2.606206 25.683824 -2.458615
2012-03-06 15:27:46 51°15.795 2°53.448 9.3438 2.604759 25.648099 -2.458615
2012-03-06 15:28:46 51°15.636 2°53.567 9.404 2.601555 25.597721 -2.458615
2012-03-06 15:29:46 51°15.486 2°53.707 9.4549 2.608479 25.654 -2.458615
2012-03-06 15:30:46 51°15.344 2°53.87 9.4741 2.61747 25.73399 -2.458615
2012-03-06 15:31:46 51°15.218 2°54.059 9.5456 2.620466 25.746307 -2.458615
2012-03-06 15:32:46 51°15.092 2°54.249 9.5927 2.62243 25.749604 -2.458615
2012-03-06 15:33:46 51°14.959 2°54.429 9.6392 2.605171 25.547084 -2.458615
2012-03-06 15:34:46 51°14.83 2°54.614 9.679 2.62615 25.750393 -2.458615
2012-03-06 15:35:46 51°14.701 2°54.793 9.7286 2.610854 25.565737 -2.458615
2012-03-06 15:36:46 51°14.57 2°54.961 9.764 2.629973 25.750165 -2.458615
2012-03-06 15:37:48 51°14.432 2°55.123 9.8101 2.625322 25.680197 -2.458615
2012-03-06 15:38:50 51°14.306 2°55.256 9.8406 2.631419 25.723695 -2.458615
2012-03-06 15:39:50 51°14.197 2°55.355 9.8737 2.629456 25.683419 -2.458615
2012-03-06 15:40:50 51°14.086 2°55.44 9.9178 2.639583 25.77083 -2.458615
2012-03-06 15:41:50 51°13.996 2°55.511 9.9423 2.640513 25.762323 -2.458615
2012-03-06 15:42:50 51°13.914 2°55.574 10.0014 2.638343 25.71918 -2.458615
2012-03-06 15:43:49 51°13.823 2°55.644 10.0237 2.646197 25.782056 -2.458615
2012-03-06 15:44:50 51°13.746 2°55.723 10.0489 2.647024 25.771752 -2.458615
2012-03-06 15:45:50 51°13.701 2°55.81 10.105 2.648057 25.764385 -2.458615
2012-03-06 15:46:50 51°13.662 2°55.899 10.1404 2.653638 25.807068 -2.458615
2012-03-06 15:47:50 51°13.643 2°55.991 10.1841 2.663663 25.892959 -2.458615